createdAt,value
2019-03-30T00:01:25.605Z,5.40
2019-03-30T00:03:55.498Z,5.41
2019-03-30T00:06:25.397Z,5.41
2019-03-30T00:08:55.315Z,5.40
2019-03-30T00:11:25.231Z,5.45
2019-03-30T00:13:55.319Z,5.63
2019-03-30T00:16:25.261Z,5.65
2019-03-30T00:18:55.158Z,5.58
2019-03-30T00:21:25.010Z,5.60
2019-03-30T00:23:54.930Z,5.59
2019-03-30T00:26:24.874Z,5.54
2019-03-30T00:28:54.813Z,5.45
2019-03-30T00:31:24.778Z,5.42
2019-03-30T00:33:54.762Z,5.37
2019-03-30T00:36:24.650Z,5.23
2019-03-30T00:38:54.664Z,5.10
2019-03-30T00:41:25.097Z,5.12
2019-03-30T00:43:55.015Z,5.12
2019-03-30T00:46:25.020Z,5.15
2019-03-30T00:48:54.923Z,4.92
2019-03-30T00:51:24.793Z,4.92
2019-03-30T00:53:54.751Z,4.89
2019-03-30T00:56:24.686Z,4.80
2019-03-30T00:58:54.641Z,4.80
2019-03-30T01:01:24.595Z,4.95
2019-03-30T01:03:54.493Z,4.95
2019-03-30T01:06:24.391Z,5.10
2019-03-30T01:08:54.314Z,5.07
2019-03-30T01:11:24.220Z,4.82
2019-03-30T01:13:54.104Z,4.83
2019-03-30T01:16:24.020Z,4.83
2019-03-30T01:18:53.931Z,4.71
2019-03-30T01:21:23.945Z,4.71
2019-03-30T01:23:53.909Z,4.44
2019-03-30T01:26:23.825Z,4.40
2019-03-30T01:28:53.987Z,4.36
2019-03-30T01:31:24.066Z,4.19
2019-03-30T01:33:53.963Z,4.19
2019-03-30T01:36:23.881Z,4.20
2019-03-30T01:38:53.838Z,4.18
2019-03-30T01:41:23.761Z,4.12
2019-03-30T01:43:53.672Z,4.08
2019-03-30T01:46:23.558Z,4.05
2019-03-30T01:48:53.448Z,4.03
2019-03-30T01:51:23.370Z,4.08
2019-03-30T01:53:53.300Z,4.16
2019-03-30T01:56:23.190Z,4.16
2019-03-30T01:58:53.076Z,4.15
2019-03-30T02:01:23.053Z,4.12
2019-03-30T02:03:52.962Z,4.12
2019-03-30T02:06:22.933Z,4.09
2019-03-30T02:08:53.029Z,4.18
2019-03-30T02:11:23.066Z,4.16
2019-03-30T02:13:52.948Z,4.13
2019-03-30T02:16:23.028Z,4.08
2019-03-30T02:18:52.942Z,4.15
2019-03-30T02:21:22.999Z,4.20
2019-03-30T02:23:52.907Z,4.25
2019-03-30T02:26:22.853Z,4.18
2019-03-30T02:28:52.739Z,4.03
2019-03-30T02:31:22.852Z,4.03
2019-03-30T02:33:52.778Z,4.00
2019-03-30T02:36:22.733Z,3.95
2019-03-30T02:38:52.659Z,3.85
2019-03-30T02:41:22.593Z,3.79
2019-03-30T02:43:52.495Z,3.63
2019-03-30T02:46:22.363Z,3.58
2019-03-30T02:48:52.250Z,3.53
2019-03-30T02:51:22.152Z,3.50
2019-03-30T02:53:52.053Z,3.45
2019-03-30T02:56:22.067Z,3.37
2019-03-30T02:58:52.008Z,3.27
2019-03-30T03:01:21.905Z,3.11
2019-03-30T03:03:51.920Z,3.10
2019-03-30T03:06:21.967Z,3.18
2019-03-30T03:08:51.882Z,3.23
2019-03-30T03:11:21.806Z,3.25
2019-03-30T03:13:51.720Z,3.15
2019-03-30T03:16:21.602Z,3.08
2019-03-30T03:18:51.508Z,3.02
2019-03-30T03:21:21.411Z,2.99
2019-03-30T03:23:51.350Z,2.98
2019-03-30T03:26:21.247Z,2.93
2019-03-30T03:28:51.248Z,3.02
2019-03-30T03:31:21.606Z,3.00
2019-03-30T03:33:51.494Z,2.98
2019-03-30T03:36:21.396Z,3.03
2019-03-30T03:38:51.636Z,3.02
2019-03-30T03:41:21.588Z,2.98
2019-03-30T03:43:51.471Z,3.05
2019-03-30T03:46:21.344Z,3.07
2019-03-30T03:48:51.248Z,2.98
2019-03-30T03:51:26.085Z,2.95
2019-03-30T03:53:55.051Z,2.90
2019-03-30T03:56:27.788Z,2.94
2019-03-30T03:58:59.270Z,2.96
2019-03-30T04:01:30.723Z,3.08
2019-03-30T04:04:03.052Z,3.15
2019-03-30T04:06:34.293Z,3.24
2019-03-30T04:09:06.616Z,3.26
2019-03-30T04:11:37.918Z,3.23
2019-03-30T04:14:09.736Z,3.20
2019-03-30T04:16:39.668Z,3.21
2019-03-30T04:19:09.602Z,3.19
2019-03-30T04:21:44.445Z,3.10
2019-03-30T04:24:11.190Z,2.98
2019-03-30T04:26:41.068Z,2.94
2019-03-30T04:29:10.948Z,2.91
2019-03-30T04:31:40.839Z,3.03
2019-03-30T04:34:10.742Z,3.11
2019-03-30T04:36:40.649Z,3.20
2019-03-30T04:39:10.537Z,3.25
2019-03-30T04:41:40.448Z,3.15
2019-03-30T04:44:10.369Z,3.24
2019-03-30T04:46:40.304Z,3.54
2019-03-30T04:49:11.877Z,3.92
2019-03-30T04:51:41.834Z,3.96
2019-03-30T04:54:11.784Z,3.69
2019-03-30T04:56:41.712Z,3.52
2019-03-30T04:59:11.636Z,3.74
2019-03-30T05:01:41.634Z,3.88
2019-03-30T05:04:11.588Z,4.18
2019-03-30T05:06:41.863Z,4.77
2019-03-30T05:09:14.451Z,5.34
2019-03-30T05:11:44.334Z,5.77
2019-03-30T05:14:14.276Z,5.94
2019-03-30T05:16:44.221Z,6.46
2019-03-30T05:19:14.129Z,6.46
2019-03-30T05:21:44.062Z,6.40
2019-03-30T05:24:13.978Z,6.31
2019-03-30T05:26:43.925Z,7.11
2019-03-30T05:29:13.989Z,7.64
2019-03-30T05:31:44.543Z,7.86
2019-03-30T05:34:14.520Z,7.66
2019-03-30T05:36:44.531Z,7.83
2019-03-30T05:39:14.488Z,7.73
2019-03-30T05:41:44.416Z,7.77
2019-03-30T05:44:14.390Z,8.17
2019-03-30T05:46:44.320Z,8.34
2019-03-30T05:49:14.524Z,8.88
2019-03-30T05:51:44.673Z,8.90
2019-03-30T05:54:14.621Z,8.71
2019-03-30T05:56:44.733Z,8.53
2019-03-30T05:59:14.711Z,8.95
2019-03-30T06:01:44.726Z,8.63
2019-03-30T06:04:14.885Z,8.90
2019-03-30T06:06:44.841Z,8.68
2019-03-30T06:09:14.755Z,8.82
2019-03-30T06:11:44.654Z,9.19
2019-03-30T06:14:14.709Z,9.31
2019-03-30T06:16:44.572Z,9.33
2019-03-30T06:19:14.733Z,9.26
2019-03-30T06:21:44.645Z,9.67
2019-03-30T06:24:14.573Z,9.25
2019-03-30T06:26:44.521Z,9.38
2019-03-30T06:29:14.412Z,9.56
2019-03-30T06:31:46.739Z,10.11
2019-03-30T06:34:15.941Z,10.40
2019-03-30T06:36:45.850Z,10.95
2019-03-30T06:39:16.024Z,10.97
2019-03-30T06:41:45.926Z,11.17
2019-03-30T06:44:15.886Z,10.78
2019-03-30T06:46:45.838Z,10.70
2019-03-30T06:49:15.737Z,11.06
2019-03-30T06:51:45.937Z,10.66
2019-03-30T06:54:16.292Z,10.39
2019-03-30T06:56:46.307Z,11.13
2019-03-30T06:59:16.199Z,11.42
2019-03-30T07:01:46.796Z,11.50
2019-03-30T07:04:16.943Z,12.22
2019-03-30T07:06:47.064Z,12.54
2019-03-30T07:09:19.010Z,12.46
2019-03-30T07:11:50.757Z,12.64
2019-03-30T07:14:22.238Z,13.05
2019-03-30T07:16:55.017Z,11.97
2019-03-30T07:19:27.896Z,11.61
2019-03-30T07:21:58.310Z,11.88
2019-03-30T07:24:28.774Z,11.52
2019-03-30T07:26:58.657Z,11.04
2019-03-30T07:29:29.109Z,11.57
2019-03-30T07:31:59.092Z,12.42
2019-03-30T07:34:29.028Z,12.98
2019-03-30T07:36:58.922Z,13.56
2019-03-30T07:39:28.864Z,12.47
2019-03-30T07:41:58.792Z,12.68
2019-03-30T07:44:28.708Z,13.16
2019-03-30T07:46:58.734Z,14.33
2019-03-30T07:49:28.679Z,13.77
2019-03-30T07:51:58.758Z,13.83
2019-03-30T07:54:28.781Z,13.92
2019-03-30T07:57:05.536Z,13.85
2019-03-30T07:59:31.269Z,14.28
2019-03-30T08:02:01.197Z,14.26
2019-03-30T08:04:31.313Z,13.69
2019-03-30T08:07:01.264Z,14.00
2019-03-30T08:09:31.191Z,13.93
2019-03-30T08:12:01.344Z,13.43
2019-03-30T08:14:31.306Z,13.58
2019-03-30T08:17:01.347Z,14.53
2019-03-30T08:19:31.300Z,14.43
2019-03-30T08:22:01.310Z,14.76
2019-03-30T08:24:31.293Z,14.63
2019-03-30T08:27:01.250Z,15.56
2019-03-30T08:29:31.216Z,15.02
2019-03-30T08:32:01.213Z,14.77
2019-03-30T08:34:31.271Z,14.16
2019-03-30T08:37:01.313Z,14.21
2019-03-30T08:39:31.695Z,13.89
2019-03-30T08:42:01.618Z,14.26
2019-03-30T08:44:31.709Z,15.16
2019-03-30T08:47:01.645Z,14.49
2019-03-30T08:49:31.623Z,15.22
2019-03-30T08:52:01.586Z,15.83
2019-03-30T08:54:31.553Z,15.48
2019-03-30T08:57:01.503Z,15.03
2019-03-30T08:59:31.478Z,15.51
2019-03-30T09:02:01.421Z,16.55
2019-03-30T09:04:31.438Z,16.38
2019-03-30T09:07:01.378Z,15.37
2019-03-30T09:09:31.328Z,14.58
2019-03-30T09:12:01.286Z,13.87
2019-03-30T09:14:31.239Z,15.13
2019-03-30T09:17:01.173Z,15.68
2019-03-30T09:19:32.888Z,16.28
2019-03-30T09:22:02.825Z,16.40
2019-03-30T09:24:32.736Z,15.14
2019-03-30T09:27:02.683Z,15.89
2019-03-30T09:29:32.663Z,16.46
2019-03-30T09:32:13.757Z,16.86
2019-03-30T09:34:34.769Z,15.76
2019-03-30T09:37:05.013Z,15.16
2019-03-30T09:39:34.918Z,15.24
2019-03-30T09:42:04.955Z,15.73
2019-03-30T09:44:34.916Z,15.48
2019-03-30T09:47:05.210Z,16.83
2019-03-30T09:49:35.122Z,17.86
2019-03-30T09:52:05.284Z,18.05
2019-03-30T09:54:35.837Z,17.67
2019-03-30T09:57:06.785Z,17.36
2019-03-30T09:59:36.793Z,17.29
2019-03-30T10:02:06.814Z,17.01
2019-03-30T10:04:36.814Z,16.30
2019-03-30T10:07:06.784Z,16.20
2019-03-30T10:09:36.716Z,16.56
2019-03-30T10:12:06.707Z,16.64
2019-03-30T10:15:05.150Z,16.96
2019-03-30T10:17:35.080Z,16.69
2019-03-30T10:20:05.509Z,16.78
2019-03-30T10:22:35.559Z,17.49
2019-03-30T10:25:05.543Z,18.16
2019-03-30T10:27:35.491Z,16.97
2019-03-30T10:30:06.556Z,15.24
2019-03-30T10:32:37.561Z,15.24
2019-03-30T10:35:08.571Z,16.36
2019-03-30T10:37:39.616Z,16.99
2019-03-30T10:40:10.261Z,18.04
2019-03-30T10:42:40.329Z,18.80
2019-03-30T10:45:10.609Z,18.47
2019-03-30T10:47:40.565Z,17.01
2019-03-30T10:50:10.805Z,16.34
2019-03-30T10:52:40.792Z,16.03
2019-03-30T10:55:10.919Z,14.95
2019-03-30T10:57:41.673Z,14.78
2019-03-30T11:00:12.139Z,15.89
2019-03-30T11:02:42.090Z,15.78
2019-03-30T11:05:13.266Z,14.77
2019-03-30T11:07:43.406Z,14.64
2019-03-30T11:10:13.705Z,15.86
2019-03-30T11:12:44.261Z,16.71
2019-03-30T11:15:14.374Z,17.54
2019-03-30T11:17:44.695Z,17.74
2019-03-30T11:20:14.641Z,18.51
2019-03-30T11:22:44.578Z,18.31
2019-03-30T11:25:14.482Z,18.60
2019-03-30T11:27:44.419Z,18.41
2019-03-30T11:30:14.393Z,18.07
2019-03-30T11:32:44.271Z,18.25
2019-03-30T11:35:14.192Z,18.82
2019-03-30T11:37:44.083Z,18.23
2019-03-30T11:40:14.146Z,18.63
2019-03-30T11:42:45.131Z,19.21
2019-03-30T11:45:15.092Z,19.38
2019-03-30T11:47:45.116Z,19.69
2019-03-30T11:50:15.034Z,20.06
2019-03-30T11:52:44.991Z,19.79
2019-03-30T11:55:21.816Z,19.53
2019-03-30T11:57:46.999Z,19.24
2019-03-30T12:00:17.222Z,19.18
2019-03-30T12:02:47.198Z,19.14
2019-03-30T12:05:17.155Z,18.63
2019-03-30T12:07:47.084Z,18.75
2019-03-30T12:10:17.026Z,19.35
2019-03-30T12:12:46.938Z,19.73
2019-03-30T12:15:16.867Z,19.43
2019-03-30T12:17:46.754Z,19.37
2019-03-30T12:20:17.176Z,19.08
2019-03-30T12:22:47.131Z,19.21
2019-03-30T12:25:17.011Z,19.56
2019-03-30T12:27:46.911Z,18.72
2019-03-30T12:30:16.917Z,19.07
2019-03-30T12:32:46.873Z,19.22
2019-03-30T12:35:16.871Z,19.16
2019-03-30T12:37:46.811Z,18.96
2019-03-30T12:40:17.074Z,18.98
2019-03-30T12:42:46.970Z,18.62
2019-03-30T12:45:16.975Z,18.65
2019-03-30T12:47:46.883Z,18.44
2019-03-30T12:50:16.796Z,18.21
2019-03-30T12:52:46.709Z,18.49
2019-03-30T12:55:19.840Z,18.37
2019-03-30T12:57:49.789Z,18.13
2019-03-30T13:00:20.385Z,18.11
2019-03-30T13:02:50.275Z,17.20
2019-03-30T13:05:20.244Z,16.44
2019-03-30T13:07:50.144Z,16.07
2019-03-30T13:10:20.492Z,16.08
2019-03-30T13:12:50.423Z,16.21
2019-03-30T13:15:20.425Z,16.07
2019-03-30T13:17:50.311Z,15.97
2019-03-30T13:20:20.254Z,16.03
2019-03-30T13:22:50.364Z,15.85
2019-03-30T13:25:20.298Z,15.81
2019-03-30T13:27:53.261Z,15.93
2019-03-30T13:30:22.041Z,15.98
2019-03-30T13:32:53.587Z,15.73
2019-03-30T13:35:23.557Z,15.61
2019-03-30T13:37:53.499Z,15.76
2019-03-30T13:40:23.615Z,15.62
2019-03-30T13:42:53.553Z,15.54
2019-03-30T13:45:23.609Z,15.12
2019-03-30T13:47:53.972Z,15.13
2019-03-30T13:50:23.891Z,15.51
2019-03-30T13:52:53.871Z,15.32
2019-03-30T13:55:23.808Z,15.49
2019-03-30T13:57:53.715Z,15.28
2019-03-30T14:00:23.618Z,15.28
2019-03-30T14:02:53.562Z,15.23
2019-03-30T14:05:23.563Z,15.14
2019-03-30T14:07:53.424Z,15.11
2019-03-30T14:10:23.354Z,15.06
2019-03-30T14:12:53.231Z,15.06
2019-03-30T14:15:23.164Z,15.17
2019-03-30T14:17:53.067Z,15.13
2019-03-30T14:20:23.087Z,15.18
2019-03-30T14:22:53.068Z,15.24
2019-03-30T14:25:23.105Z,14.90
2019-03-30T14:27:53.093Z,14.97
2019-03-30T14:30:23.089Z,14.90
2019-03-30T14:32:53.059Z,14.99
2019-03-30T14:35:24.556Z,15.00
2019-03-30T14:37:54.556Z,14.99
2019-03-30T14:40:24.825Z,14.85
2019-03-30T14:42:54.815Z,14.74
2019-03-30T14:45:24.761Z,14.66
2019-03-30T14:47:57.742Z,14.59
2019-03-30T14:50:28.789Z,14.54
2019-03-30T14:53:00.401Z,14.60
2019-03-30T14:55:30.824Z,14.62
2019-03-30T14:58:00.801Z,14.43
2019-03-30T15:00:31.641Z,14.32
2019-03-30T15:03:02.286Z,14.29
2019-03-30T15:05:34.716Z,14.18
2019-03-30T15:08:06.327Z,14.37
2019-03-30T15:10:36.799Z,14.42
2019-03-30T15:13:07.954Z,14.28
2019-03-30T15:15:38.385Z,14.17
2019-03-30T15:18:11.028Z,14.27
2019-03-30T15:20:40.954Z,14.14
2019-03-30T15:23:11.029Z,14.24
2019-03-30T15:25:43.675Z,14.25
2019-03-30T15:28:13.622Z,14.23
2019-03-30T15:30:43.538Z,14.16
2019-03-30T15:33:14.764Z,13.95
2019-03-30T15:35:44.749Z,13.81
2019-03-30T15:38:14.723Z,13.81
2019-03-30T15:40:44.690Z,13.89
2019-03-30T15:43:14.649Z,13.90
2019-03-30T15:45:44.975Z,13.80
2019-03-30T15:48:16.563Z,13.70
2019-03-30T15:50:46.979Z,13.54
2019-03-30T15:53:17.579Z,13.60
2019-03-30T15:55:48.990Z,13.64
2019-03-30T15:58:20.012Z,13.56
2019-03-30T16:00:50.373Z,13.52
2019-03-30T16:03:20.568Z,13.37
2019-03-30T16:05:50.825Z,13.36
2019-03-30T16:08:20.774Z,13.36
2019-03-30T16:10:52.467Z,13.36
2019-03-30T16:13:22.621Z,13.24
2019-03-30T16:15:52.967Z,13.22
2019-03-30T16:18:22.959Z,13.13
2019-03-30T16:20:53.420Z,13.10
2019-03-30T16:23:23.449Z,13.03
2019-03-30T16:25:53.479Z,12.98
2019-03-30T16:28:24.914Z,12.99
2019-03-30T16:30:55.763Z,12.96
2019-03-30T16:33:26.589Z,12.77
2019-03-30T16:35:57.288Z,12.71
2019-03-30T16:38:27.948Z,12.65
2019-03-30T16:41:00.530Z,12.62
2019-03-30T16:43:32.201Z,12.50
2019-03-30T16:46:02.921Z,12.41
2019-03-30T16:48:32.883Z,12.43
2019-03-30T16:51:02.801Z,12.41
2019-03-30T16:53:32.725Z,12.37
2019-03-30T16:56:03.295Z,12.29
2019-03-30T16:58:34.157Z,12.20
2019-03-30T17:01:04.087Z,12.13
2019-03-30T17:03:34.053Z,12.12
2019-03-30T17:06:04.024Z,12.08
2019-03-30T17:08:34.007Z,12.01
2019-03-30T17:11:04.045Z,12.03
2019-03-30T17:13:34.205Z,11.96
2019-03-30T17:16:04.160Z,11.92
2019-03-30T17:18:34.130Z,11.86
2019-03-30T17:21:04.121Z,11.83
2019-03-30T17:23:34.029Z,11.84
2019-03-30T17:26:04.053Z,11.89
2019-03-30T17:28:34.016Z,11.74
2019-03-30T17:31:04.078Z,11.65
2019-03-30T17:33:34.040Z,11.56
2019-03-30T17:36:04.152Z,11.49
2019-03-30T17:38:34.074Z,11.46
2019-03-30T17:41:04.088Z,11.39
2019-03-30T17:43:34.067Z,11.36
2019-03-30T17:46:04.134Z,11.28
2019-03-30T17:48:34.078Z,11.21
2019-03-30T17:51:05.335Z,11.19
2019-03-30T17:53:39.220Z,11.21
2019-03-30T17:56:07.574Z,11.09
2019-03-30T17:58:38.113Z,11.03
2019-03-30T18:01:08.054Z,11.03
2019-03-30T18:03:38.114Z,11.09
2019-03-30T18:06:09.387Z,11.29
2019-03-30T18:08:39.779Z,11.68
2019-03-30T18:11:10.078Z,11.69
2019-03-30T18:13:40.059Z,11.93
2019-03-30T18:16:10.646Z,12.00
2019-03-30T18:18:41.586Z,11.69
2019-03-30T18:21:13.652Z,11.51
2019-03-30T18:23:47.398Z,11.38
2019-03-30T18:26:17.111Z,11.34
2019-03-30T18:28:47.050Z,11.34
2019-03-30T18:31:17.468Z,11.31
2019-03-30T18:33:47.610Z,11.15
2019-03-30T18:36:18.843Z,11.11
2019-03-30T18:38:49.810Z,11.14
2019-03-30T18:41:19.970Z,11.06
2019-03-30T18:43:50.901Z,10.96
2019-03-30T18:46:20.827Z,10.93
2019-03-30T18:48:51.027Z,10.81
2019-03-30T18:51:21.562Z,10.74
2019-03-30T18:53:52.195Z,10.67
2019-03-30T18:56:22.228Z,10.64
2019-03-30T18:58:52.209Z,10.68
2019-03-30T19:01:22.153Z,10.66
2019-03-30T19:03:52.335Z,10.70
2019-03-30T19:06:22.419Z,10.65
2019-03-30T19:08:52.394Z,10.71
2019-03-30T19:11:22.372Z,10.56
2019-03-30T19:13:52.294Z,10.53
2019-03-30T19:16:22.368Z,10.50
2019-03-30T19:18:52.305Z,10.38
2019-03-30T19:21:22.265Z,10.19
2019-03-30T19:23:52.215Z,10.20
2019-03-30T19:26:22.125Z,10.23
2019-03-30T19:28:56.574Z,10.23
2019-03-30T19:31:24.084Z,10.19
2019-03-30T19:33:54.610Z,10.27
2019-03-30T19:36:24.595Z,10.16
2019-03-30T19:38:54.494Z,10.05
2019-03-30T19:41:24.446Z,9.96
2019-03-30T19:43:54.389Z,9.82
2019-03-30T19:46:26.680Z,9.72
2019-03-30T19:48:55.968Z,9.68
2019-03-30T19:51:25.992Z,9.63
2019-03-30T19:53:59.690Z,9.59
2019-03-30T19:56:27.738Z,9.75
2019-03-30T19:59:10.157Z,9.92
2019-03-30T20:01:29.322Z,9.85
2019-03-30T20:03:59.285Z,9.86
2019-03-30T20:06:29.200Z,9.84
2019-03-30T20:08:59.215Z,9.82
2019-03-30T20:11:29.157Z,9.79
2019-03-30T20:13:59.083Z,9.71
2019-03-30T20:16:30.049Z,9.51
2019-03-30T20:19:11.552Z,9.44
2019-03-30T20:21:31.629Z,9.51
2019-03-30T20:24:01.578Z,9.55
2019-03-30T20:26:31.488Z,9.50
2019-03-30T20:29:01.428Z,9.59
2019-03-30T20:31:31.344Z,9.52
2019-03-30T20:34:01.232Z,9.45
2019-03-30T20:36:31.171Z,9.35
2019-03-30T20:39:01.119Z,9.24
2019-03-30T20:41:31.082Z,9.30
2019-03-30T20:44:00.995Z,9.30
2019-03-30T20:46:30.901Z,9.33
2019-03-30T20:49:00.794Z,9.23
2019-03-30T20:51:30.695Z,9.20
2019-03-30T20:54:00.639Z,9.16
2019-03-30T20:56:30.574Z,9.22
2019-03-30T20:59:01.036Z,9.20
2019-03-30T21:01:30.922Z,9.10
2019-03-30T21:04:00.849Z,8.84
2019-03-30T21:06:30.778Z,8.84
2019-03-30T21:09:00.725Z,8.96
2019-03-30T21:11:30.659Z,9.08
2019-03-30T21:14:00.608Z,9.14
2019-03-30T21:16:31.776Z,9.19
2019-03-30T21:19:01.755Z,9.13
2019-03-30T21:21:31.793Z,9.01
2019-03-30T21:24:01.712Z,8.88
2019-03-30T21:26:31.641Z,8.74
2019-03-30T21:29:01.577Z,8.77
2019-03-30T21:31:31.581Z,8.71
2019-03-30T21:34:01.453Z,8.64
2019-03-30T21:36:31.364Z,8.62
2019-03-30T21:39:01.277Z,8.60
2019-03-30T21:41:31.227Z,8.62
2019-03-30T21:44:01.163Z,8.66
2019-03-30T21:46:31.200Z,8.50
2019-03-30T21:49:01.114Z,8.37
2019-03-30T21:51:31.024Z,8.35
2019-03-30T21:54:01.121Z,8.35
2019-03-30T21:56:31.323Z,8.26
2019-03-30T21:59:01.285Z,8.12
2019-03-30T22:01:31.300Z,8.07
2019-03-30T22:04:01.207Z,7.99
2019-03-30T22:06:31.113Z,7.99
2019-03-30T22:09:01.517Z,7.83
2019-03-30T22:11:31.431Z,7.72
2019-03-30T22:14:01.788Z,7.73
2019-03-30T22:16:31.674Z,7.65
2019-03-30T22:19:01.639Z,7.69
2019-03-30T22:21:31.543Z,7.60
2019-03-30T22:24:01.529Z,7.57
2019-03-30T22:26:31.453Z,7.48
2019-03-30T22:29:01.423Z,7.41
2019-03-30T22:31:31.351Z,7.29
2019-03-30T22:34:01.270Z,7.36
2019-03-30T22:36:31.177Z,7.17
2019-03-30T22:39:01.084Z,7.08
2019-03-30T22:41:31.006Z,7.11
2019-03-30T22:44:00.933Z,7.23
2019-03-30T22:46:30.920Z,7.24
2019-03-30T22:49:00.864Z,7.24
2019-03-30T22:51:30.894Z,7.25
2019-03-30T22:54:00.852Z,7.21
2019-03-30T22:56:30.733Z,7.18
2019-03-30T22:59:00.673Z,7.24
2019-03-30T23:01:30.710Z,7.24
2019-03-30T23:04:00.730Z,7.28
2019-03-30T23:06:30.664Z,7.20
2019-03-30T23:09:00.887Z,7.28
2019-03-30T23:11:30.773Z,7.21
2019-03-30T23:14:00.668Z,7.22
2019-03-30T23:16:30.558Z,7.08
2019-03-30T23:19:00.510Z,7.01
2019-03-30T23:21:30.374Z,7.03
2019-03-30T23:24:00.286Z,7.10
2019-03-30T23:26:30.630Z,7.14
2019-03-30T23:29:00.551Z,7.14
2019-03-30T23:31:30.463Z,7.17
2019-03-30T23:34:00.535Z,7.11
2019-03-30T23:36:30.513Z,7.08
2019-03-30T23:39:00.379Z,7.07
2019-03-30T23:41:30.517Z,6.99
2019-03-30T23:44:00.431Z,7.07
2019-03-30T23:46:30.342Z,7.06
2019-03-30T23:49:00.268Z,7.07
2019-03-30T23:51:30.674Z,6.93
2019-03-30T23:54:00.554Z,6.93
2019-03-30T23:56:30.505Z,6.87
2019-03-30T23:59:00.350Z,6.83
